createdAt,value
2019-03-30T00:01:06.204Z,16.75
2019-03-30T00:03:34.625Z,19.10
2019-03-30T00:06:03.059Z,21.52
2019-03-30T00:08:31.498Z,18.12
2019-03-30T00:10:59.909Z,18.52
2019-03-30T00:13:28.347Z,21.68
2019-03-30T00:15:56.767Z,20.08
2019-03-30T00:18:25.203Z,20.48
2019-03-30T00:20:53.626Z,23.05
2019-03-30T00:23:22.058Z,22.02
2019-03-30T00:25:50.472Z,15.65
2019-03-30T00:28:18.918Z,18.95
2019-03-30T00:30:47.337Z,18.98
2019-03-30T00:33:15.771Z,25.05
2019-03-30T00:35:44.209Z,22.17
2019-03-30T00:38:12.640Z,19.80
2019-03-30T00:40:41.071Z,20.75
2019-03-30T00:43:09.499Z,21.15
2019-03-30T00:45:38.003Z,21.23
2019-03-30T00:48:06.449Z,19.23
2019-03-30T00:50:34.891Z,19.10
2019-03-30T00:53:03.314Z,24.15
2019-03-30T00:55:31.754Z,23.07
2019-03-30T00:58:00.192Z,24.72
2019-03-30T01:00:28.613Z,24.82
2019-03-30T01:02:57.084Z,21.97
2019-03-30T01:05:25.499Z,22.75
2019-03-30T01:07:53.940Z,24.27
2019-03-30T01:10:22.462Z,19.52
2019-03-30T01:12:50.898Z,18.92
2019-03-30T01:15:19.311Z,25.72
2019-03-30T01:17:47.758Z,24.77
2019-03-30T01:20:16.167Z,18.30
2019-03-30T01:22:44.613Z,18.92
2019-03-30T01:25:13.049Z,20.77
2019-03-30T01:27:41.458Z,24.80
2019-03-30T01:30:22.575Z,23.57
2019-03-30T01:32:39.968Z,24.87
2019-03-30T01:35:08.438Z,24.75
2019-03-30T01:37:36.923Z,24.10
2019-03-30T01:40:06.676Z,23.38
2019-03-30T01:42:35.088Z,21.95
2019-03-30T01:45:05.031Z,26.60
2019-03-30T01:47:33.533Z,26.47
2019-03-30T01:50:16.170Z,22.73
2019-03-30T01:52:32.337Z,22.75
2019-03-30T01:55:01.008Z,23.35
2019-03-30T01:57:29.701Z,27.50
2019-03-30T01:59:58.371Z,19.17
2019-03-30T02:02:27.076Z,26.52
2019-03-30T02:04:55.740Z,22.98
2019-03-30T02:07:24.435Z,25.05
2019-03-30T02:09:53.126Z,25.60
2019-03-30T02:12:21.823Z,27.98
2019-03-30T02:14:50.512Z,25.35
2019-03-30T02:17:20.290Z,25.30
2019-03-30T02:19:49.201Z,25.33
2019-03-30T02:22:17.858Z,28.73
2019-03-30T02:24:46.567Z,25.27
2019-03-30T02:27:15.254Z,26.02
2019-03-30T02:29:43.944Z,23.42
2019-03-30T02:32:12.644Z,29.82
2019-03-30T02:34:41.322Z,22.50
2019-03-30T02:37:10.027Z,21.97
2019-03-30T02:39:38.702Z,26.80
2019-03-30T02:42:07.404Z,23.75
2019-03-30T02:44:36.149Z,21.20
2019-03-30T02:47:04.883Z,22.40
2019-03-30T02:49:33.549Z,27.37
2019-03-30T02:52:02.253Z,22.95
2019-03-30T02:54:31.086Z,23.98
2019-03-30T02:56:59.813Z,23.15
2019-03-30T02:59:28.484Z,24.43
2019-03-30T03:01:57.165Z,23.35
2019-03-30T03:04:25.855Z,30.02
2019-03-30T03:06:54.525Z,26.68
2019-03-30T03:09:23.224Z,24.50
2019-03-30T03:11:51.909Z,22.45
2019-03-30T03:14:20.603Z,28.60
2019-03-30T03:16:49.299Z,22.10
2019-03-30T03:19:17.965Z,22.95
2019-03-30T03:21:46.652Z,25.08
2019-03-30T03:24:15.333Z,31.20
2019-03-30T03:26:44.025Z,28.10
2019-03-30T03:29:12.701Z,29.25
2019-03-30T03:31:41.398Z,26.68
2019-03-30T03:34:10.076Z,24.72
2019-03-30T03:36:38.767Z,23.73
2019-03-30T03:39:07.448Z,25.92
2019-03-30T03:41:36.134Z,21.70
2019-03-30T03:44:04.837Z,28.70
2019-03-30T03:46:33.508Z,25.00
2019-03-30T03:49:02.209Z,29.35
2019-03-30T03:51:30.876Z,27.60
2019-03-30T03:53:59.574Z,31.93
2019-03-30T03:56:28.240Z,26.68
2019-03-30T03:58:57.357Z,29.50
2019-03-30T04:01:26.518Z,30.43
2019-03-30T04:03:55.220Z,27.32
2019-03-30T04:06:23.890Z,35.25
2019-03-30T04:08:54.193Z,27.65
2019-03-30T04:11:22.965Z,28.12
2019-03-30T04:13:52.364Z,28.23
2019-03-30T04:16:21.066Z,27.25
2019-03-30T04:18:49.745Z,26.77
2019-03-30T04:21:18.438Z,25.70
2019-03-30T04:23:47.104Z,27.30
2019-03-30T04:26:15.797Z,29.15
2019-03-30T04:28:44.474Z,27.80
2019-03-30T04:31:13.172Z,32.10
2019-03-30T04:33:41.846Z,36.08
2019-03-30T04:36:10.545Z,25.92
2019-03-30T04:38:39.240Z,30.68
2019-03-30T04:41:07.908Z,32.60
2019-03-30T04:43:36.608Z,29.77
2019-03-30T04:46:05.285Z,28.40
2019-03-30T04:48:33.981Z,26.50
2019-03-30T04:51:02.651Z,29.98
2019-03-30T04:53:31.351Z,34.18
2019-03-30T04:56:00.044Z,31.17
2019-03-30T04:58:28.718Z,30.25
2019-03-30T05:00:57.413Z,28.35
2019-03-30T05:03:26.092Z,28.55
2019-03-30T05:05:54.780Z,29.05
2019-03-30T05:08:23.456Z,40.10
2019-03-30T05:10:52.159Z,32.15
2019-03-30T05:13:20.842Z,30.95
2019-03-30T05:15:49.534Z,27.98
2019-03-30T05:18:18.240Z,27.87
2019-03-30T05:20:46.917Z,27.07
2019-03-30T05:23:15.613Z,28.92
2019-03-30T05:25:44.284Z,29.75
2019-03-30T05:28:13.096Z,28.27
2019-03-30T05:30:41.783Z,37.63
2019-03-30T05:33:10.472Z,30.05
2019-03-30T05:35:39.161Z,29.95
2019-03-30T05:38:07.852Z,30.62
2019-03-30T05:40:36.526Z,29.90
2019-03-30T05:43:05.219Z,29.12
2019-03-30T05:45:33.923Z,28.57
2019-03-30T05:48:02.629Z,29.23
2019-03-30T05:50:31.304Z,26.73
2019-03-30T05:52:59.997Z,26.17
2019-03-30T05:55:28.701Z,38.53
2019-03-30T05:57:57.388Z,26.52
2019-03-30T06:00:26.080Z,30.12
2019-03-30T06:02:54.759Z,28.12
2019-03-30T06:05:23.479Z,25.90
2019-03-30T06:07:52.146Z,27.17
2019-03-30T06:10:20.837Z,29.05
2019-03-30T06:12:49.652Z,24.70
2019-03-30T06:15:18.368Z,28.20
2019-03-30T06:17:47.103Z,27.45
2019-03-30T06:20:15.844Z,30.60
2019-03-30T06:22:44.546Z,30.97
2019-03-30T06:25:13.216Z,25.70
2019-03-30T06:27:41.910Z,28.65
2019-03-30T06:30:47.577Z,23.80
2019-03-30T06:33:16.315Z,23.98
2019-03-30T06:35:45.083Z,22.35
2019-03-30T06:38:13.807Z,26.60
2019-03-30T06:40:42.488Z,33.40
2019-03-30T06:43:11.256Z,25.82
2019-03-30T06:45:39.932Z,23.15
2019-03-30T06:48:08.688Z,27.60
2019-03-30T06:50:37.438Z,23.00
2019-03-30T06:53:06.137Z,22.40
2019-03-30T06:55:34.796Z,20.40
2019-03-30T06:58:03.488Z,24.43
2019-03-30T07:00:33.874Z,22.20
2019-03-30T07:03:04.436Z,23.10
2019-03-30T07:05:37.477Z,17.98
2019-03-30T07:08:06.173Z,21.97
2019-03-30T07:10:38.271Z,19.60
2019-03-30T07:13:05.467Z,20.95
2019-03-30T07:15:34.627Z,18.85
2019-03-30T07:18:03.321Z,21.05
2019-03-30T07:20:32.047Z,18.20
2019-03-30T07:23:11.070Z,19.12
2019-03-30T07:25:31.366Z,20.85
2019-03-30T07:28:00.030Z,18.80
2019-03-30T07:30:28.803Z,17.48
2019-03-30T07:32:57.606Z,21.17
2019-03-30T07:35:26.273Z,19.35
2019-03-30T07:37:55.056Z,25.48
2019-03-30T07:40:23.722Z,18.45
2019-03-30T07:42:52.482Z,20.23
2019-03-30T07:45:21.182Z,21.73
2019-03-30T07:47:49.986Z,18.12
2019-03-30T07:50:18.697Z,18.55
2019-03-30T07:52:49.734Z,18.57
2019-03-30T07:55:18.459Z,20.30
2019-03-30T07:57:47.155Z,19.80
2019-03-30T08:00:15.842Z,18.02
2019-03-30T08:02:44.528Z,17.75
2019-03-30T08:05:13.236Z,15.28
2019-03-30T08:10:14.864Z,21.10
2019-03-30T08:12:43.554Z,17.50
2019-03-30T08:15:12.267Z,19.60
2019-03-30T08:17:40.965Z,15.55
2019-03-30T08:20:09.755Z,16.48
2019-03-30T08:22:38.642Z,14.65
2019-03-30T08:25:07.343Z,17.20
2019-03-30T08:27:36.097Z,13.93
2019-03-30T08:30:06.558Z,16.12
2019-03-30T08:32:35.253Z,17.32
2019-03-30T08:35:04.932Z,15.98
2019-03-30T08:37:33.639Z,17.42
2019-03-30T08:40:02.345Z,12.33
2019-03-30T08:42:31.053Z,18.35
2019-03-30T08:44:59.746Z,15.20
2019-03-30T08:47:28.476Z,12.33
2019-03-30T08:49:56.908Z,14.05
2019-03-30T08:52:25.605Z,11.55
2019-03-30T08:54:54.305Z,16.27
2019-03-30T08:57:22.982Z,11.53
2019-03-30T08:59:51.668Z,14.18
2019-03-30T09:02:20.037Z,16.25
2019-03-30T09:04:48.467Z,14.58
2019-03-30T09:07:24.184Z,15.40
2019-03-30T09:09:52.553Z,14.05
2019-03-30T09:12:20.956Z,15.83
2019-03-30T09:14:49.377Z,16.27
2019-03-30T09:17:18.056Z,15.00
2019-03-30T09:19:46.753Z,16.67
2019-03-30T09:22:15.472Z,16.70
2019-03-30T09:24:44.154Z,10.40
2019-03-30T09:27:12.853Z,13.28
2019-03-30T09:29:41.528Z,18.12
2019-03-30T09:32:14.748Z,12.73
2019-03-30T09:34:40.573Z,11.93
2019-03-30T09:37:09.265Z,16.55
2019-03-30T09:39:37.940Z,14.25
2019-03-30T09:42:06.636Z,17.95
2019-03-30T09:44:35.339Z,17.00
2019-03-30T09:47:04.018Z,14.73
2019-03-30T09:49:32.720Z,10.32
2019-03-30T09:52:01.394Z,12.88
2019-03-30T09:54:30.093Z,15.58
2019-03-30T09:56:58.773Z,16.25
2019-03-30T09:59:27.462Z,12.53
2019-03-30T10:01:56.147Z,15.78
2019-03-30T10:04:24.838Z,15.68
2019-03-30T10:06:53.538Z,16.32
2019-03-30T10:09:22.219Z,14.07
2019-03-30T10:11:50.915Z,14.80
2019-03-30T10:14:19.597Z,16.70
2019-03-30T10:16:48.791Z,15.13
2019-03-30T10:19:17.695Z,14.80
2019-03-30T10:21:46.372Z,15.43
2019-03-30T10:24:15.074Z,13.20
2019-03-30T10:26:43.745Z,14.87
2019-03-30T10:29:12.446Z,13.25
2019-03-30T10:31:41.117Z,13.20
2019-03-30T10:34:09.817Z,15.08
2019-03-30T10:36:38.512Z,16.35
2019-03-30T10:39:07.883Z,17.37
2019-03-30T10:41:36.591Z,15.13
2019-03-30T10:44:05.264Z,13.10
2019-03-30T10:46:33.964Z,14.10
2019-03-30T10:49:02.642Z,13.28
2019-03-30T10:51:31.344Z,17.27
2019-03-30T10:54:00.024Z,13.50
2019-03-30T10:56:28.698Z,20.77
2019-03-30T10:58:57.399Z,13.95
2019-03-30T11:01:26.075Z,13.48
2019-03-30T11:03:54.769Z,13.58
2019-03-30T11:06:23.447Z,24.82
2019-03-30T11:08:52.145Z,16.37
2019-03-30T11:11:20.822Z,15.80
2019-03-30T11:13:49.617Z,18.90
2019-03-30T11:16:18.309Z,15.75
2019-03-30T11:18:46.990Z,15.98
2019-03-30T11:21:15.688Z,11.80
2019-03-30T11:23:44.454Z,18.60
2019-03-30T11:26:13.179Z,17.85
2019-03-30T11:28:41.856Z,19.17
2019-03-30T11:31:10.565Z,14.35
2019-03-30T11:33:39.238Z,17.98
2019-03-30T11:36:07.933Z,16.12
2019-03-30T11:38:36.638Z,12.75
2019-03-30T11:41:05.303Z,15.08
2019-03-30T11:43:34.008Z,15.48
2019-03-30T11:46:02.685Z,13.98
2019-03-30T11:48:31.381Z,16.15
2019-03-30T11:51:00.059Z,17.95
2019-03-30T11:53:28.749Z,14.85
2019-03-30T11:55:57.445Z,16.93
2019-03-30T11:58:26.129Z,18.12
2019-03-30T12:00:54.820Z,15.55
2019-03-30T12:03:23.492Z,21.07
2019-03-30T12:05:52.184Z,12.75
2019-03-30T12:08:20.860Z,11.08
2019-03-30T12:10:49.565Z,15.15
2019-03-30T12:13:18.264Z,16.75
2019-03-30T12:15:46.936Z,15.05
2019-03-30T12:18:16.531Z,17.07
2019-03-30T12:20:45.196Z,15.75
2019-03-30T12:23:13.901Z,17.55
2019-03-30T12:25:42.588Z,19.98
2019-03-30T12:28:11.301Z,19.55
2019-03-30T12:30:39.984Z,16.40
2019-03-30T12:33:08.685Z,21.15
2019-03-30T12:35:37.397Z,16.12
2019-03-30T12:38:06.048Z,19.65
2019-03-30T12:40:34.750Z,13.20
2019-03-30T12:43:03.420Z,15.18
2019-03-30T12:45:32.120Z,17.77
2019-03-30T12:48:00.798Z,20.08
2019-03-30T12:50:29.489Z,19.05
2019-03-30T12:52:58.176Z,20.60
2019-03-30T12:55:26.876Z,23.65
2019-03-30T12:57:55.580Z,20.05
2019-03-30T13:00:24.252Z,17.92
2019-03-30T13:02:52.949Z,16.77
2019-03-30T13:05:21.631Z,13.65
2019-03-30T13:07:50.329Z,16.23
2019-03-30T13:10:19.007Z,22.40
2019-03-30T13:12:47.709Z,15.10
2019-03-30T13:15:16.377Z,14.58
2019-03-30T13:17:45.076Z,14.87
2019-03-30T13:20:13.758Z,20.37
2019-03-30T13:22:42.468Z,14.20
2019-03-30T13:25:11.161Z,15.30
2019-03-30T13:27:39.840Z,10.60
2019-03-30T13:30:08.628Z,13.03
2019-03-30T13:32:37.311Z,17.95
2019-03-30T13:35:06.012Z,13.18
2019-03-30T13:37:35.672Z,13.00
2019-03-30T13:40:06.824Z,15.03
2019-03-30T13:42:35.508Z,15.28
2019-03-30T13:45:06.012Z,14.70
2019-03-30T13:47:36.362Z,15.53
2019-03-30T13:50:06.736Z,16.15
2019-03-30T13:52:35.761Z,16.48
2019-03-30T13:55:05.237Z,15.08
2019-03-30T13:57:33.930Z,12.95
2019-03-30T14:00:02.796Z,12.78
2019-03-30T14:02:31.493Z,20.30
2019-03-30T14:05:00.340Z,14.28
2019-03-30T14:07:29.072Z,16.82
2019-03-30T14:09:57.845Z,13.15
2019-03-30T14:12:26.755Z,16.57
2019-03-30T14:14:55.426Z,23.00
2019-03-30T14:17:24.120Z,18.02
2019-03-30T14:19:52.817Z,16.55
2019-03-30T14:22:21.497Z,17.75
2019-03-30T14:24:50.192Z,13.88
2019-03-30T14:27:18.872Z,21.30
2019-03-30T14:29:47.566Z,18.17
2019-03-30T14:32:16.265Z,19.73
2019-03-30T14:34:44.933Z,22.00
2019-03-30T14:37:13.629Z,18.57
2019-03-30T14:39:42.323Z,17.00
2019-03-30T14:42:11.014Z,21.00
2019-03-30T14:45:00.586Z,18.55
2019-03-30T14:47:30.196Z,18.20
2019-03-30T14:49:58.872Z,18.70
2019-03-30T14:52:27.574Z,12.55
2019-03-30T14:54:56.347Z,15.70
2019-03-30T14:57:25.040Z,17.60
2019-03-30T14:59:53.869Z,15.03
2019-03-30T15:02:22.865Z,17.07
2019-03-30T15:04:51.580Z,16.95
2019-03-30T15:07:20.272Z,17.57
2019-03-30T15:09:49.009Z,19.50
2019-03-30T15:12:17.645Z,23.98
2019-03-30T15:14:46.344Z,19.00
2019-03-30T15:17:15.045Z,16.77
2019-03-30T15:19:43.748Z,18.42
2019-03-30T15:22:12.454Z,18.45
2019-03-30T15:24:41.116Z,25.17
2019-03-30T15:27:09.810Z,18.90
2019-03-30T15:29:38.488Z,20.23
2019-03-30T15:32:07.187Z,10.98
2019-03-30T15:34:35.860Z,15.40
2019-03-30T15:37:04.564Z,14.35
2019-03-30T15:39:33.249Z,15.15
2019-03-30T15:42:01.947Z,14.35
2019-03-30T15:44:30.655Z,15.50
2019-03-30T15:46:59.326Z,14.40
2019-03-30T15:49:28.026Z,16.02
2019-03-30T15:51:56.700Z,16.20
2019-03-30T15:54:25.402Z,12.53
2019-03-30T15:56:54.077Z,14.23
2019-03-30T15:59:22.774Z,17.57
2019-03-30T16:01:51.457Z,17.75
2019-03-30T16:04:20.157Z,15.80
2019-03-30T16:06:48.846Z,13.72
2019-03-30T16:09:17.617Z,23.30
2019-03-30T16:11:46.318Z,12.10
2019-03-30T16:14:14.993Z,16.93
2019-03-30T16:16:43.684Z,14.45
2019-03-30T16:19:12.360Z,19.55
2019-03-30T16:21:41.053Z,16.15
2019-03-30T16:24:09.726Z,17.37
2019-03-30T16:26:42.141Z,15.08
2019-03-30T16:29:08.763Z,21.60
2019-03-30T16:31:37.432Z,15.60
2019-03-30T16:34:06.145Z,15.00
2019-03-30T16:36:34.812Z,15.65
2019-03-30T16:39:05.014Z,10.28
2019-03-30T16:41:33.710Z,13.58
2019-03-30T16:44:02.403Z,15.70
2019-03-30T16:46:31.076Z,15.53
2019-03-30T16:48:59.769Z,14.10
2019-03-30T16:51:28.468Z,26.30
2019-03-30T16:53:57.140Z,16.82
2019-03-30T16:56:25.838Z,16.30
2019-03-30T16:58:54.521Z,15.45
2019-03-30T17:01:23.225Z,13.03
2019-03-30T17:03:51.913Z,18.10
2019-03-30T17:06:20.600Z,44.70
2019-03-30T17:08:49.294Z,18.30
2019-03-30T17:11:17.965Z,18.73
2019-03-30T17:13:46.663Z,17.70
2019-03-30T17:16:15.340Z,22.48
2019-03-30T17:18:44.042Z,19.25
2019-03-30T17:21:12.749Z,16.97
2019-03-30T17:23:41.438Z,20.23
2019-03-30T17:26:10.113Z,26.60
2019-03-30T17:28:38.792Z,19.07
2019-03-30T17:31:07.484Z,21.42
2019-03-30T17:33:36.163Z,19.55
2019-03-30T17:36:04.869Z,22.32
2019-03-30T17:38:33.538Z,16.90
2019-03-30T17:41:02.228Z,18.65
2019-03-30T17:43:30.934Z,17.48
2019-03-30T17:45:59.604Z,19.90
2019-03-30T17:48:28.303Z,18.48
2019-03-30T17:50:58.378Z,18.17
2019-03-30T17:53:27.477Z,21.42
2019-03-30T17:55:56.160Z,15.83
2019-03-30T17:58:24.844Z,22.58
2019-03-30T18:00:53.538Z,23.73
2019-03-30T18:03:22.204Z,22.67
2019-03-30T18:05:50.909Z,19.00
2019-03-30T18:08:19.581Z,21.00
2019-03-30T18:10:48.381Z,20.45
2019-03-30T18:13:17.053Z,24.27
2019-03-30T18:15:45.750Z,18.42
2019-03-30T18:18:14.424Z,17.80
2019-03-30T18:20:43.092Z,18.87
2019-03-30T18:23:11.825Z,21.40
2019-03-30T18:25:40.471Z,23.83
2019-03-30T18:28:09.180Z,20.88
2019-03-30T18:30:39.859Z,18.70
2019-03-30T18:33:08.551Z,20.55
2019-03-30T18:35:39.321Z,21.55
2019-03-30T18:38:08.006Z,22.50
2019-03-30T18:40:36.699Z,22.20
2019-03-30T18:43:05.372Z,22.37
2019-03-30T18:45:34.070Z,24.07
2019-03-30T18:48:13.257Z,25.45
2019-03-30T18:50:42.054Z,26.00
2019-03-30T18:53:10.749Z,24.30
2019-03-30T18:55:39.424Z,27.35
2019-03-30T18:58:08.128Z,25.25
2019-03-30T19:00:36.909Z,23.12
2019-03-30T19:03:06.308Z,26.23
2019-03-30T19:05:35.353Z,29.12
2019-03-30T19:08:03.988Z,28.42
2019-03-30T19:10:32.917Z,24.43
2019-03-30T19:13:01.597Z,27.65
2019-03-30T19:15:30.287Z,27.82
2019-03-30T19:18:00.981Z,33.18
2019-03-30T19:20:30.715Z,29.90
2019-03-30T19:22:59.399Z,29.77
2019-03-30T19:25:29.746Z,29.52
2019-03-30T19:27:58.561Z,35.70
2019-03-30T19:30:27.308Z,35.88
2019-03-30T19:32:55.977Z,38.13
2019-03-30T19:35:24.661Z,33.48
2019-03-30T19:37:53.360Z,39.42
2019-03-30T19:40:22.068Z,34.75
2019-03-30T19:42:50.816Z,31.57
2019-03-30T19:45:19.531Z,37.35
2019-03-30T19:47:48.221Z,40.12
2019-03-30T19:50:16.949Z,38.80
2019-03-30T19:52:45.619Z,38.00
2019-03-30T19:55:14.437Z,40.08
2019-03-30T19:57:43.143Z,52.10
2019-03-30T20:00:14.644Z,45.65
2019-03-30T20:03:02.729Z,50.15
2019-03-30T20:05:31.511Z,45.98
2019-03-30T20:08:11.553Z,50.70
2019-03-30T20:10:30.604Z,49.70
2019-03-30T20:12:59.984Z,48.73
2019-03-30T20:15:28.672Z,50.80
2019-03-30T20:17:57.349Z,48.33
2019-03-30T20:20:26.021Z,55.03
2019-03-30T20:22:54.725Z,55.78
2019-03-30T20:25:26.023Z,53.02
2019-03-30T20:27:53.817Z,58.80
2019-03-30T20:30:24.355Z,64.95
2019-03-30T20:32:52.860Z,53.25
2019-03-30T20:35:21.552Z,55.23
2019-03-30T20:37:50.231Z,55.92
2019-03-30T20:40:18.930Z,58.23
2019-03-30T20:42:47.685Z,68.57
2019-03-30T20:45:16.410Z,63.92
2019-03-30T20:47:45.106Z,63.13
2019-03-30T20:50:13.791Z,60.03
2019-03-30T20:52:42.529Z,66.35
2019-03-30T20:55:11.308Z,66.22
2019-03-30T20:57:41.663Z,63.98
2019-03-30T21:00:11.727Z,44.65
2019-03-30T21:02:40.417Z,58.13
2019-03-30T21:05:09.104Z,62.27
2019-03-30T21:07:37.938Z,67.25
2019-03-30T21:10:10.973Z,63.70
2019-03-30T21:12:39.652Z,67.80
2019-03-30T21:15:08.323Z,62.00
2019-03-30T21:17:37.020Z,64.35
2019-03-30T21:20:06.198Z,66.33
2019-03-30T21:22:34.944Z,64.30
2019-03-30T21:25:04.450Z,65.72
2019-03-30T21:27:33.184Z,63.85
2019-03-30T21:30:02.014Z,62.95
2019-03-30T21:32:30.747Z,65.15
2019-03-30T21:34:59.445Z,59.60
2019-03-30T21:37:28.152Z,65.45
2019-03-30T21:39:56.909Z,61.13
2019-03-30T21:42:25.617Z,64.00
2019-03-30T21:44:54.281Z,62.62
2019-03-30T21:47:23.049Z,64.07
2019-03-30T21:49:51.824Z,70.55
2019-03-30T21:52:21.434Z,55.33
2019-03-30T21:54:50.101Z,65.57
2019-03-30T21:57:18.800Z,58.28
2019-03-30T21:59:47.476Z,56.35
2019-03-30T22:02:16.201Z,57.85
2019-03-30T22:04:44.926Z,59.95
2019-03-30T22:07:13.618Z,59.03
2019-03-30T22:09:42.327Z,60.40
2019-03-30T22:12:11.049Z,59.50
2019-03-30T22:14:39.749Z,54.93
2019-03-30T22:17:10.010Z,51.77
2019-03-30T22:19:38.733Z,52.70
2019-03-30T22:22:07.420Z,56.42
2019-03-30T22:24:36.181Z,48.00
2019-03-30T22:27:04.828Z,47.03
2019-03-30T22:29:33.531Z,47.43
2019-03-30T22:32:02.226Z,48.55
2019-03-30T22:34:30.924Z,49.27
2019-03-30T22:36:59.602Z,47.40
2019-03-30T22:39:28.312Z,50.80
2019-03-30T22:41:57.012Z,51.75
2019-03-30T22:44:25.720Z,45.73
2019-03-30T22:46:54.408Z,46.05
2019-03-30T22:49:23.123Z,50.28
2019-03-30T22:51:51.814Z,47.00
2019-03-30T22:54:20.534Z,48.55
2019-03-30T22:56:49.205Z,46.68
2019-03-30T22:59:17.919Z,40.58
2019-03-30T23:01:46.585Z,44.38
2019-03-30T23:04:15.276Z,50.80
2019-03-30T23:06:43.970Z,45.10
2019-03-30T23:09:12.645Z,47.93
2019-03-30T23:11:41.337Z,45.88
2019-03-30T23:14:10.009Z,49.38
2019-03-30T23:16:38.710Z,45.48
2019-03-30T23:19:07.380Z,51.45
2019-03-30T23:21:36.078Z,50.58
2019-03-30T23:24:04.780Z,47.80
2019-03-30T23:26:33.445Z,53.15
2019-03-30T23:29:02.136Z,46.42
2019-03-30T23:31:30.805Z,50.83
2019-03-30T23:33:59.500Z,52.85
2019-03-30T23:36:28.165Z,47.15
2019-03-30T23:38:56.867Z,49.25
2019-03-30T23:41:25.564Z,53.87
2019-03-30T23:43:54.236Z,50.05
2019-03-30T23:46:22.929Z,48.20
2019-03-30T23:48:51.606Z,54.75
2019-03-30T23:51:20.303Z,57.53
2019-03-30T23:53:48.972Z,56.92
2019-03-30T23:56:21.901Z,50.80
2019-03-30T23:58:51.174Z,52.78
